Time;durP1;ratioP1;P1;durP2;ratioP2;P2;SDS_P1;SDS_P2;PMS_P1;PMS_P2;Temp;Humidity;BMP_temperature;BMP_pressure;BME280_temperature;BME280_humidity;BME280_pressure;Samples;Min_cycle;Max_cycle;Signal;HPM_P1;HPM_P2
2021/03/19 00:00:25;;;;;;;12.53;11.43;;;3.20;99.90;;;;;;5033872;28;20670;-92
2021/03/19 00:02:53;;;;;;;12.47;11.37;;;3.20;99.90;;;;;;5000162;28;20634;-93
2021/03/19 00:05:23;;;;;;;17.50;12.20;;;3.10;99.90;;;;;;5038242;28;20726;-94
2021/03/19 00:07:52;;;;;;;12.40;11.30;;;3.20;99.90;;;;;;5030120;28;20666;-93
2021/03/19 00:10:20;;;;;;;11.77;10.87;;;3.10;99.90;;;;;;5033964;28;20658;-92
2021/03/19 00:12:48;;;;;;;12.93;11.80;;;3.10;99.90;;;;;;5031775;28;20643;-92
2021/03/19 00:15:16;;;;;;;11.60;10.57;;;3.00;99.90;;;;;;5036335;28;21157;-92
2021/03/19 00:17:44;;;;;;;12.83;11.57;;;3.10;99.90;;;;;;5030524;28;20634;-92
2021/03/19 00:20:13;;;;;;;15.57;12.50;;;3.20;99.90;;;;;;5032677;28;20704;-93
2021/03/19 00:22:40;;;;;;;14.17;12.23;;;3.20;99.90;;;;;;5017548;28;20681;-92
2021/03/19 00:25:09;;;;;;;13.93;12.53;;;3.20;99.90;;;;;;5014034;28;20654;-92
2021/03/19 00:27:37;;;;;;;13.87;12.63;;;3.20;99.90;;;;;;5033938;28;20623;-93
2021/03/19 00:30:07;;;;;;;12.77;11.57;;;3.20;99.90;;;;;;5030176;28;20737;-92
2021/03/19 00:32:33;;;;;;;12.43;11.20;;;3.00;99.90;;;;;;5029981;28;20646;-91
2021/03/19 00:35:02;;;;;;;12.83;11.60;;;3.20;99.90;;;;;;5029307;28;20631;-92
2021/03/19 00:37:29;;;;;;;11.60;10.70;;;3.00;99.90;;;;;;5033362;28;20709;-92
2021/03/19 00:39:56;;;;;;;11.47;10.33;;;2.80;99.90;;;;;;5034743;28;20683;-93
2021/03/19 00:42:22;;;;;;;11.40;10.40;;;2.90;99.90;;;;;;5029737;28;20977;-91
2021/03/19 00:44:48;;;;;;;11.17;10.10;;;2.90;99.90;;;;;;5031416;28;21008;-93
2021/03/19 00:47:14;;;;;;;10.67;9.70;;;2.90;99.90;;;;;;5031303;28;20643;-93
2021/03/19 00:49:43;;;;;;;11.00;10.10;;;2.90;99.90;;;;;;5028992;28;20654;-93
2021/03/19 00:52:09;;;;;;;12.10;10.80;;;3.10;99.90;;;;;;5016323;28;20619;-92
2021/03/19 00:54:36;;;;;;;11.27;10.27;;;3.00;99.90;;;;;;5041549;28;20599;-92
2021/03/19 00:57:03;;;;;;;10.83;9.93;;;3.00;99.90;;;;;;5038704;28;20619;-91
2021/03/19 00:59:29;;;;;;;12.87;11.60;;;2.80;99.90;;;;;;5029716;28;20728;-92
2021/03/19 01:01:56;;;;;;;13.50;10.80;;;2.80;99.90;;;;;;5027058;28;20639;-92
2021/03/19 01:04:22;;;;;;;12.00;10.90;;;2.70;99.90;;;;;;5029613;28;20642;-92
2021/03/19 01:06:49;;;;;;;11.27;10.33;;;2.70;99.90;;;;;;5013363;28;20927;-92
2021/03/19 01:09:16;;;;;;;12.50;11.33;;;2.70;99.90;;;;;;5034314;28;20623;-92
2021/03/19 01:11:43;;;;;;;12.20;11.20;;;2.70;99.90;;;;;;5030515;28;20626;-92
2021/03/19 01:14:09;;;;;;;12.23;11.23;;;2.70;99.90;;;;;;5028467;28;21035;-93
2021/03/19 01:16:35;;;;;;;13.43;12.23;;;2.60;99.90;;;;;;5030524;28;20635;-93
2021/03/19 01:19:02;;;;;;;12.60;11.50;;;2.60;99.90;;;;;;5029856;28;20673;-93
2021/03/19 01:21:28;;;;;;;14.43;12.83;;;2.50;99.90;;;;;;5039257;28;20659;-93
2021/03/19 01:23:55;;;;;;;13.90;12.50;;;2.50;99.90;;;;;;5027211;28;20630;-93
2021/03/19 01:26:28;;;;;;;13.10;12.00;;;2.50;99.90;;;;;;5039324;28;20707;-95
2021/03/19 01:28:55;;;;;;;15.80;14.30;;;2.50;99.90;;;;;;5040331;28;20627;-95
2021/03/19 01:31:22;;;;;;;13.83;12.53;;;2.50;99.90;;;;;;5042294;28;20666;-93
2021/03/19 01:33:49;;;;;;;13.33;12.03;;;2.50;99.90;;;;;;5043841;28;20638;-94
2021/03/19 01:36:15;;;;;;;13.70;12.50;;;2.50;99.90;;;;;;5036112;28;20627;-93
2021/03/19 01:38:42;;;;;;;14.97;13.63;;;2.50;99.90;;;;;;5032589;28;20714;-94
2021/03/19 01:41:10;;;;;;;12.30;11.13;;;2.50;99.90;;;;;;5031918;28;20673;-93
2021/03/19 01:43:38;;;;;;;13.67;12.47;;;2.50;99.90;;;;;;5035064;28;20630;-92
2021/03/19 01:46:42;;;;;;;14.20;12.93;;;2.40;99.90;;;;;;5032835;28;21212;-93
2021/03/19 01:49:46;;;;;;;14.67;13.30;;;2.40;99.90;;;;;;5030453;28;20696;-92
2021/03/19 01:52:50;;;;;;;13.90;12.63;;;2.40;99.90;;;;;;5017875;28;21162;-93
2021/03/19 01:55:57;;;;;;;14.00;12.73;;;2.30;99.90;;;;;;5029528;28;20989;-93
2021/03/19 01:59:01;;;;;;;14.20;13.10;;;2.20;99.90;;;;;;5035039;28;20756;-93
2021/03/19 02:02:06;;;;;;;13.97;12.87;;;2.10;99.90;;;;;;5032161;28;20650;-92
2021/03/19 02:05:10;;;;;;;14.63;13.53;;;2.10;99.90;;;;;;5029562;28;20629;-90
2021/03/19 02:08:13;;;;;;;14.33;13.13;;;2.10;99.90;;;;;;5026582;28;20669;-92
2021/03/19 02:11:17;;;;;;;14.63;13.20;;;2.10;99.90;;;;;;5031647;28;20658;-92
2021/03/19 02:14:24;;;;;;;15.20;14.00;;;2.10;99.90;;;;;;5031406;28;21145;-93
2021/03/19 02:17:28;;;;;;;15.10;13.47;;;2.10;99.90;;;;;;5029646;28;20630;-93
2021/03/19 02:20:31;;;;;;;15.47;14.07;;;2.10;99.90;;;;;;5036879;28;20761;-95
2021/03/19 02:23:35;;;;;;;14.40;13.30;;;2.00;99.90;;;;;;5035906;28;21186;-93
2021/03/19 02:26:39;;;;;;;15.23;13.93;;;2.00;99.90;;;;;;5030035;28;20642;-93
2021/03/19 02:29:42;;;;;;;16.27;14.97;;;2.00;99.90;;;;;;5031808;28;20631;-93
2021/03/19 02:32:12;;;;;;;17.17;15.47;;;2.00;99.90;;;;;;5031535;28;20992;-93
2021/03/19 02:34:44;;;;;;;15.90;14.50;;;2.00;99.90;;;;;;5031767;28;20643;-92
2021/03/19 02:37:13;;;;;;;15.30;14.00;;;2.00;99.90;;;;;;5028581;28;20669;-93
2021/03/19 02:39:40;;;;;;;16.13;14.70;;;2.00;99.90;;;;;;5039318;28;20655;-92
2021/03/19 02:42:08;;;;;;;16.37;14.93;;;2.10;99.90;;;;;;5047951;28;20630;-92
2021/03/19 02:44:36;;;;;;;17.13;15.83;;;2.10;99.90;;;;;;5035554;28;20953;-92
2021/03/19 02:47:04;;;;;;;16.87;15.30;;;2.10;99.90;;;;;;5032524;28;20634;-92
2021/03/19 02:49:31;;;;;;;16.77;15.40;;;2.20;99.90;;;;;;5036372;28;20715;-94
2021/03/19 02:51:57;;;;;;;17.73;16.23;;;2.30;99.90;;;;;;5024357;28;20642;-93
2021/03/19 02:54:25;;;;;;;17.27;15.87;;;2.30;99.90;;;;;;5035289;28;20643;-93
2021/03/19 02:56:52;;;;;;;18.63;16.77;;;2.30;99.90;;;;;;5035487;28;20714;-94
2021/03/19 02:59:19;;;;;;;17.13;15.73;;;2.30;99.90;;;;;;5034627;28;20673;-93
2021/03/19 03:01:46;;;;;;;18.70;17.17;;;2.30;99.90;;;;;;5033700;28;20647;-93
2021/03/19 03:04:14;;;;;;;16.60;15.03;;;2.30;99.90;;;;;;5033013;28;20623;-95
2021/03/19 03:06:43;;;;;;;18.03;16.53;;;2.30;99.90;;;;;;5030516;28;20635;-93
2021/03/19 03:09:13;;;;;;;17.90;16.27;;;2.30;99.90;;;;;;5037216;28;20997;-93
2021/03/19 03:11:40;;;;;;;19.27;17.53;;;2.30;99.90;;;;;;5020732;28;20762;-93
2021/03/19 03:14:10;;;;;;;17.77;16.30;;;2.30;99.90;;;;;;5036973;28;20654;-94
2021/03/19 03:16:37;;;;;;;16.30;15.00;;;2.40;99.90;;;;;;5029776;28;21014;-92
2021/03/19 03:19:05;;;;;;;18.43;16.70;;;2.30;99.90;;;;;;5013745;28;20777;-92
2021/03/19 03:21:33;;;;;;;19.20;17.63;;;2.40;99.90;;;;;;5031959;28;20679;-94
2021/03/19 03:24:01;;;;;;;21.00;18.93;;;2.50;99.90;;;;;;5033719;28;20633;-94
2021/03/19 03:26:27;;;;;;;19.60;18.00;;;2.40;99.90;;;;;;5027911;28;20996;-94
2021/03/19 03:28:58;;;;;;;21.00;19.17;;;2.40;99.90;;;;;;5031564;28;21021;-95
2021/03/19 03:31:24;;;;;;;20.13;18.23;;;2.50;99.90;;;;;;5011418;28;20745;-93
2021/03/19 03:33:51;;;;;;;22.03;20.23;;;2.40;99.90;;;;;;5028298;28;20631;-93
2021/03/19 03:36:18;;;;;;;20.50;18.60;;;2.40;99.90;;;;;;5037238;28;20638;-94
2021/03/19 03:38:46;;;;;;;21.50;19.70;;;2.40;99.90;;;;;;5019534;28;21076;-93
2021/03/19 03:41:18;;;;;;;23.53;21.20;;;2.30;99.90;;;;;;5033356;28;20659;-93
2021/03/19 03:43:48;;;;;;;22.83;20.83;;;2.20;99.90;;;;;;5037587;28;20634;-93
2021/03/19 03:46:17;;;;;;;21.80;20.00;;;2.30;99.90;;;;;;5029452;28;20622;-93
2021/03/19 03:48:44;;;;;;;23.40;21.17;;;2.20;99.90;;;;;;5032580;28;20698;-93
2021/03/19 03:51:12;;;;;;;21.63;19.93;;;2.20;99.90;;;;;;5045961;28;20637;-92
2021/03/19 03:53:42;;;;;;;25.50;23.30;;;2.30;99.90;;;;;;5056468;28;20644;-91
2021/03/19 03:56:11;;;;;;;28.03;23.00;;;2.30;99.90;;;;;;5049906;28;20696;-92
2021/03/19 03:58:39;;;;;;;22.00;20.20;;;2.30;99.90;;;;;;5020707;28;20662;-92
2021/03/19 04:01:06;;;;;;;22.47;20.67;;;2.20;99.90;;;;;;5036932;28;21073;-94
2021/03/19 04:03:33;;;;;;;22.63;20.50;;;2.30;99.90;;;;;;5034775;28;20639;-93
2021/03/19 04:05:59;;;;;;;21.00;19.10;;;2.30;99.90;;;;;;5026170;28;20693;-93
2021/03/19 04:08:28;;;;;;;20.97;19.27;;;2.30;99.90;;;;;;5016048;28;20619;-93
2021/03/19 04:10:57;;;;;;;20.83;19.20;;;2.30;99.90;;;;;;5036881;28;20684;-95
2021/03/19 04:13:24;;;;;;;23.23;20.83;;;2.30;99.90;;;;;;5038618;28;20631;-94
2021/03/19 04:15:54;;;;;;;22.27;20.37;;;2.40;99.90;;;;;;5039935;28;21067;-93
2021/03/19 04:18:21;;;;;;;22.20;20.40;;;2.40;99.90;;;;;;5039303;28;20623;-93
2021/03/19 04:20:50;;;;;;;22.87;20.77;;;2.30;99.90;;;;;;5039195;28;20643;-93
2021/03/19 04:23:17;;;;;;;21.87;19.97;;;2.40;99.90;;;;;;5040390;28;20623;-94
2021/03/19 04:25:43;;;;;;;21.73;19.63;;;2.40;99.90;;;;;;5049489;28;20611;-93
2021/03/19 04:28:14;;;;;;;21.40;19.40;;;2.50;99.90;;;;;;5037497;28;20688;-94
2021/03/19 04:30:44;;;;;;;20.40;18.50;;;2.50;99.90;;;;;;5038221;28;20676;-94
2021/03/19 04:33:26;;;;;;;21.10;19.30;;;2.60;99.90;;;;;;5037909;28;20635;-95
2021/03/19 04:36:01;;;;;;;20.80;19.00;;;2.60;99.90;;;;;;5037989;28;20722;-94
2021/03/19 04:38:33;;;;;;;19.03;17.53;;;2.50;99.90;;;;;;5035781;28;20665;-94
2021/03/19 04:41:06;;;;;;;20.70;18.90;;;2.50;99.90;;;;;;5034885;28;20758;-94
2021/03/19 04:43:43;;;;;;;;;;;;;;;;;;;;;
2021/03/19 04:46:10;;;;;;;20.37;18.77;;;2.50;99.90;;;;;;5034159;28;20622;-92
2021/03/19 04:48:37;;;;;;;22.60;20.20;;;2.40;99.90;;;;;;5039388;28;20614;-91
2021/03/19 04:51:05;;;;;;;21.53;19.67;;;2.40;99.90;;;;;;5032352;28;20666;-92
2021/03/19 04:53:31;;;;;;;21.37;19.57;;;2.40;99.90;;;;;;5034790;28;20700;-90
2021/03/19 04:55:57;;;;;;;21.23;19.13;;;2.30;99.90;;;;;;5036347;28;20629;-93
2021/03/19 04:58:24;;;;;;;19.17;17.50;;;2.40;99.90;;;;;;5034681;28;21239;-91
2021/03/19 05:00:50;;;;;;;19.90;17.97;;;2.40;99.90;;;;;;5031890;28;20704;-91
2021/03/19 05:03:17;;;;;;;19.80;18.10;;;2.30;99.90;;;;;;5030758;28;20638;-89
2021/03/19 05:05:44;;;;;;;19.07;17.50;;;2.40;99.90;;;;;;5029135;28;20638;-90
2021/03/19 05:08:11;;;;;;;19.30;17.73;;;2.40;99.90;;;;;;5026423;28;20637;-90
2021/03/19 05:10:38;;;;;;;19.20;17.37;;;2.40;99.90;;;;;;5031040;28;20658;-90
2021/03/19 05:13:07;;;;;;;19.50;17.90;;;2.40;99.90;;;;;;5030742;28;20630;-92
2021/03/19 05:15:36;;;;;;;20.50;18.77;;;2.40;99.90;;;;;;5033366;28;20627;-91
2021/03/19 05:18:03;;;;;;;19.87;18.27;;;2.40;99.90;;;;;;5043089;28;20639;-92
2021/03/19 05:20:29;;;;;;;19.87;18.00;;;2.50;99.90;;;;;;5045717;28;20655;-91
2021/03/19 05:23:00;;;;;;;20.03;18.10;;;2.40;99.90;;;;;;5041209;28;20606;-89
2021/03/19 05:25:30;;;;;;;21.57;19.50;;;2.50;99.90;;;;;;5045898;28;20631;-91
2021/03/19 05:27:56;;;;;;;20.97;19.10;;;2.50;99.90;;;;;;5034585;28;21043;-90
2021/03/19 05:30:24;;;;;;;19.77;17.77;;;2.50;99.90;;;;;;5037920;28;20651;-91
2021/03/19 05:32:51;;;;;;;18.57;17.17;;;2.50;99.90;;;;;;5052277;28;20645;-91
2021/03/19 05:35:20;;;;;;;20.47;18.57;;;2.50;99.90;;;;;;5049066;28;20690;-91
2021/03/19 05:37:48;;;;;;;18.10;16.60;;;2.60;99.90;;;;;;5055533;28;20690;-91
2021/03/19 05:40:24;;;;;;;19.37;17.77;;;2.60;99.90;;;;;;5036382;28;20690;-91
2021/03/19 05:42:51;;;;;;;21.20;19.23;;;2.50;99.90;;;;;;5049447;28;20996;-91
2021/03/19 05:45:25;;;;;;;20.50;18.80;;;2.60;99.90;;;;;;5053577;28;20625;-92
2021/03/19 05:47:52;;;;;;;21.27;19.37;;;2.60;99.90;;;;;;5055394;28;20626;-91
2021/03/19 05:50:27;;;;;;;21.27;19.30;;;2.60;99.90;;;;;;5054574;28;20646;-93
2021/03/19 05:52:55;;;;;;;18.90;17.00;;;2.50;99.90;;;;;;5050836;28;20613;-93
2021/03/19 05:55:25;;;;;;;20.13;18.50;;;2.50;99.90;;;;;;5054998;28;20630;-93
2021/03/19 05:57:56;;;;;;;19.87;18.17;;;2.50;99.90;;;;;;5049840;28;20694;-93
2021/03/19 06:00:25;;;;;;;20.00;18.30;;;2.60;99.90;;;;;;5053523;28;20663;-91
2021/03/19 06:02:52;;;;;;;18.93;17.43;;;2.60;99.90;;;;;;5045325;28;20615;-91
2021/03/19 06:05:21;;;;;;;20.37;18.50;;;2.60;99.90;;;;;;5035816;28;20657;-91
2021/03/19 06:07:51;;;;;;;21.80;19.80;;;2.60;99.90;;;;;;5042088;28;20620;-91
2021/03/19 06:10:36;;;;;;;21.63;19.73;;;2.60;99.90;;;;;;5036802;28;21201;-89
2021/03/19 06:13:15;;;;;;;18.97;17.40;;;2.60;99.90;;;;;;5046055;28;20629;-91
2021/03/19 06:15:44;;;;;;;19.30;17.33;;;2.60;99.90;;;;;;5041772;28;21258;-90
2021/03/19 06:18:28;;;;;;;18.90;17.33;;;2.60;99.90;;;;;;5032766;28;20630;-90
2021/03/19 06:21:05;;;;;;;20.13;18.43;;;2.80;99.90;;;;;;5026721;28;20657;-90
2021/03/19 06:23:33;;;;;;;20.00;18.20;;;2.90;99.90;;;;;;5030958;28;21035;-90
2021/03/19 06:26:05;;;;;;;20.47;18.57;;;2.80;99.90;;;;;;5036297;28;20631;-90
2021/03/19 06:28:36;;;;;;;19.93;18.20;;;2.80;99.90;;;;;;5033947;28;20626;-91
2021/03/19 06:31:24;;;;;;;19.70;17.93;;;2.90;99.90;;;;;;5031517;28;20724;-91
2021/03/19 06:34:08;;;;;;;18.77;17.27;;;2.80;99.90;;;;;;5031925;28;20662;-91
2021/03/19 06:36:52;;;;;;;20.73;18.93;;;2.80;99.90;;;;;;5029952;28;20626;-91
2021/03/19 06:39:25;;;;;;;19.43;17.63;;;2.90;99.90;;;;;;5030228;28;20673;-91
2021/03/19 06:42:09;;;;;;;19.70;18.07;;;3.00;99.90;;;;;;5029996;28;20720;-91
2021/03/19 06:44:36;;;;;;;17.17;15.73;;;3.00;99.90;;;;;;5028743;28;21214;-90
2021/03/19 06:47:05;;;;;;;19.47;17.57;;;3.00;99.90;;;;;;5037381;28;20630;-91
2021/03/19 06:49:54;;;;;;;20.50;18.60;;;2.90;99.90;;;;;;5012168;28;20659;-91
2021/03/19 06:52:28;;;;;;;20.57;18.87;;;2.90;99.90;;;;;;5034874;28;20738;-90
2021/03/19 06:54:58;;;;;;;20.70;18.70;;;2.90;99.90;;;;;;5046445;28;20635;-90
2021/03/19 06:57:27;;;;;;;19.63;18.03;;;2.90;99.90;;;;;;5050388;28;20684;-94
2021/03/19 06:59:57;;;;;;;19.97;18.33;;;3.00;99.90;;;;;;5040246;28;20671;-93
2021/03/19 07:02:56;;;;;;;18.97;17.43;;;3.00;99.90;;;;;;5035902;28;20749;-94
2021/03/19 07:05:54;;;;;;;18.07;16.37;;;2.90;99.90;;;;;;5036383;28;20634;-94
2021/03/19 07:08:35;;;;;;;20.90;18.80;;;3.10;99.90;;;;;;5040890;28;20626;-95
2021/03/19 07:11:29;;;;;;;19.00;17.37;;;3.30;99.90;;;;;;5042566;28;20666;-92
2021/03/19 07:14:29;;;;;;;19.40;17.80;;;3.30;99.90;;;;;;5028898;28;20641;-90
2021/03/19 07:17:03;;;;;;;18.23;16.83;;;3.30;99.90;;;;;;4988008;28;20681;-91
2021/03/19 07:19:44;;;;;;;18.50;16.90;;;3.30;99.90;;;;;;5013745;28;20654;-93
2021/03/19 07:22:32;;;;;;;18.80;17.07;;;3.40;99.90;;;;;;5033914;28;20626;-92
2021/03/19 07:25:23;;;;;;;17.83;16.43;;;3.50;99.90;;;;;;5039255;28;21213;-93
2021/03/19 07:28:26;;;;;;;19.37;17.73;;;3.60;99.90;;;;;;5020349;28;20701;-93
2021/03/19 07:31:09;;;;;;;19.87;18.07;;;3.80;99.90;;;;;;5003488;28;20692;-92
2021/03/19 07:33:49;;;;;;;19.83;17.93;;;3.70;99.90;;;;;;5039047;28;20625;-92
2021/03/19 07:36:28;;;;;;;18.43;16.93;;;3.70;99.90;;;;;;5018684;28;20704;-91
2021/03/19 07:39:29;;;;;;;19.03;17.53;;;3.60;99.90;;;;;;5016595;28;20693;-92
2021/03/19 07:42:12;;;;;;;19.83;18.23;;;3.60;99.90;;;;;;4993227;28;20630;-89
2021/03/19 07:44:47;;;;;;;18.87;17.27;;;3.60;99.90;;;;;;5039609;28;20867;-90
2021/03/19 07:48:03;;;;;;;20.70;18.70;;;3.60;99.90;;;;;;5037800;28;20983;-91
2021/03/19 07:50:43;;;;;;;21.20;19.20;;;3.70;99.90;;;;;;4935215;29;20686;-91
2021/03/19 07:53:40;;;;;;;21.80;19.70;;;3.90;99.90;;;;;;5034966;28;20626;-92
2021/03/19 07:56:17;;;;;;;20.27;18.50;;;4.20;99.90;;;;;;5034259;28;20772;-91
2021/03/19 07:58:52;;;;;;;19.67;18.07;;;4.40;99.90;;;;;;5035719;28;20722;-90
2021/03/19 08:01:27;;;;;;;20.93;19.03;;;4.30;99.90;;;;;;5033086;28;21022;-90
2021/03/19 08:04:05;;;;;;;22.27;20.17;;;4.10;99.90;;;;;;5044238;28;20601;-93
2021/03/19 08:07:11;;;;;;;22.00;20.10;;;4.40;99.90;;;;;;5038760;28;20641;-94
2021/03/19 08:09:44;;;;;;;21.40;19.60;;;4.40;99.90;;;;;;5033429;28;20658;-93
2021/03/19 08:12:17;;;;;;;22.53;20.60;;;4.60;99.90;;;;;;5037928;28;20639;-92
2021/03/19 08:15:06;;;;;;;22.80;20.90;;;4.50;99.90;;;;;;5031613;28;21177;-92
2021/03/19 08:17:46;;;;;;;20.83;19.07;;;4.40;99.90;;;;;;5034733;28;20673;-93
2021/03/19 08:20:30;;;;;;;21.57;19.70;;;4.50;99.90;;;;;;5040936;28;20651;-96
2021/03/19 08:23:02;;;;;;;22.13;20.33;;;4.60;99.90;;;;;;5040695;28;20691;-94
2021/03/19 08:25:35;;;;;;;22.10;20.10;;;4.20;99.90;;;;;;5032530;28;21193;-95
2021/03/19 08:28:12;;;;;;;24.07;22.03;;;4.30;99.90;;;;;;5038355;28;20646;-95
2021/03/19 08:33:55;;;;;;;26.00;23.73;;;4.10;99.90;;;;;;5042268;28;20615;-95
2021/03/19 08:36:31;;;;;;;25.87;23.67;;;4.00;99.90;;;;;;5054432;28;20661;-94
2021/03/19 08:39:09;;;;;;;25.37;23.20;;;4.20;99.90;;;;;;5048700;28;20713;-96
2021/03/19 08:41:42;;;;;;;20.40;18.77;;;4.10;99.90;;;;;;5049361;28;20631;-95
2021/03/19 08:44:14;;;;;;;19.60;17.90;;;4.10;99.90;;;;;;5044108;28;20753;-94
2021/03/19 08:46:53;;;;;;;18.77;17.17;;;4.10;99.90;;;;;;5044839;28;20664;-95
2021/03/19 08:52:29;;;;;;;14.90;13.70;;;4.30;99.90;;;;;;5055394;28;20611;-94
2021/03/19 08:58:48;;;;;;;15.27;14.07;;;4.40;99.90;;;;;;5046985;28;20623;-93
2021/03/19 09:01:48;;;;;;;18.23;16.73;;;4.40;99.90;;;;;;5038363;28;20701;-94
2021/03/19 09:07:39;;;;;;;19.33;17.83;;;4.50;99.90;;;;;;5022858;28;20621;-95
2021/03/19 09:13:18;;;;;;;17.00;15.70;;;4.40;99.90;;;;;;5036624;28;20646;-96
2021/03/19 09:15:56;;;;;;;14.30;13.20;;;4.50;99.90;;;;;;5039339;28;20678;-94
2021/03/19 09:21:36;;;;;;;15.67;14.40;;;4.60;99.90;;;;;;5040689;28;21142;-96
2021/03/19 09:24:16;;;;;;;15.10;13.80;;;4.40;99.90;;;;;;5035214;28;20683;-92
2021/03/19 09:26:48;;;;;;;14.50;13.30;;;4.40;99.90;;;;;;5040101;28;20795;-94
2021/03/19 09:29:39;;;;;;;15.90;14.70;;;4.40;99.90;;;;;;5040026;28;20635;-93
2021/03/19 09:32:36;;;;;;;17.10;15.60;;;4.30;99.90;;;;;;5043137;28;20718;-94
2021/03/19 09:35:33;;;;;;;17.50;16.10;;;4.30;99.90;;;;;;5040799;28;20637;-96
2021/03/19 09:38:01;;;;;;;19.17;17.57;;;4.30;99.90;;;;;;5035902;28;21153;-95
2021/03/19 09:40:47;;;;;;;20.90;19.20;;;4.20;99.90;;;;;;5027158;28;20654;-95
2021/03/19 09:43:46;;;;;;;20.30;18.63;;;4.40;99.90;;;;;;5047012;28;20618;-95
2021/03/19 09:46:22;;;;;;;17.60;16.10;;;4.60;99.90;;;;;;5047227;28;20660;-94
2021/03/19 09:49:02;;;;;;;17.53;16.03;;;4.80;99.90;;;;;;5007474;28;20646;-93
2021/03/19 09:51:40;;;;;;;17.00;15.70;;;4.80;99.90;;;;;;5018720;28;20635;-94
2021/03/19 09:54:31;;;;;;;18.13;16.73;;;4.80;99.90;;;;;;5034653;28;20639;-93
2021/03/19 09:57:04;;;;;;;18.10;16.70;;;4.50;99.90;;;;;;5032602;28;21232;-94
2021/03/19 09:59:35;;;;;;;16.20;14.90;;;4.40;99.90;;;;;;5034864;28;20766;-92
2021/03/19 10:02:21;;;;;;;16.43;15.13;;;4.30;99.90;;;;;;5048603;28;20627;-93
2021/03/19 10:04:48;;;;;;;17.10;15.60;;;4.40;99.90;;;;;;5057952;28;20657;-93
2021/03/19 10:07:16;;;;;;;14.93;13.73;;;4.60;99.90;;;;;;5050000;28;20654;-92
2021/03/19 10:09:45;;;;;;;15.40;13.93;;;4.70;99.90;;;;;;5040384;28;20627;-90
2021/03/19 10:12:17;;;;;;;14.50;13.40;;;4.70;99.90;;;;;;5037746;28;20935;-93
2021/03/19 10:14:46;;;;;;;15.63;14.43;;;4.70;99.90;;;;;;5029377;28;21205;-93
2021/03/19 10:17:33;;;;;;;14.50;13.30;;;4.90;99.90;;;;;;5041049;28;20773;-92
2021/03/19 10:20:03;;;;;;;13.60;12.43;;;5.00;99.90;;;;;;5024192;28;20659;-93
2021/03/19 10:22:37;;;;;;;14.57;13.37;;;5.50;99.90;;;;;;5031737;28;20623;-92
2021/03/19 10:25:33;;;;;;;14.33;13.13;;;5.80;99.90;;;;;;5030130;28;20659;-92
2021/03/19 10:28:03;;;;;;;13.47;12.40;;;6.10;99.90;;;;;;5001410;28;20671;-93
2021/03/19 10:30:34;;;;;;;11.73;10.83;;;6.90;99.90;;;;;;5030506;28;20641;-93
2021/03/19 10:33:15;;;;;;;11.80;10.80;;;7.00;99.90;;;;;;5032665;28;20622;-93
2021/03/19 10:36:20;;;;;;;10.00;9.10;;;6.70;99.90;;;;;;5049358;28;20699;-96
2021/03/19 10:42:24;;;;;;;8.30;7.70;;;6.50;99.90;;;;;;5057356;28;20634;-96
2021/03/19 10:45:47;;;;;;;9.07;8.37;;;6.40;99.90;;;;;;5079658;28;20582;-96
2021/03/19 10:49:18;;;;;;;9.37;8.67;;;6.30;99.90;;;;;;5068465;28;20682;-96
2021/03/19 10:51:52;;;;;;;10.30;9.40;;;6.00;99.90;;;;;;5053112;28;20626;-96
2021/03/19 10:54:39;;;;;;;8.80;8.10;;;6.10;99.90;;;;;;5056233;28;20646;-96
2021/03/19 11:13:41;;;;;;;8.37;7.77;;;5.00;99.90;;;;;;4965669;29;20860;-95
2021/03/19 11:59:24;;;;;;;8.30;7.63;;;5.60;99.90;;;;;;5073955;26;20724;-95
2021/03/19 12:07:39;;;;;;;8.27;7.67;;;6.20;99.90;;;;;;5052639;28;20650;-95
2021/03/19 12:10:15;;;;;;;8.00;7.40;;;5.90;99.90;;;;;;5056108;28;20705;-95
2021/03/19 12:12:52;;;;;;;8.27;7.57;;;5.70;99.90;;;;;;5072488;28;20641;-96
2021/03/19 12:18:42;;;;;;;8.97;8.27;;;5.50;99.90;;;;;;5077457;28;20642;-96
2021/03/19 12:32:23;;;;;;;10.53;9.63;;;5.20;99.90;;;;;;5177228;22;20685;-96
2021/03/19 12:41:38;;;;;;;11.73;10.63;;;4.90;99.90;;;;;;5058527;28;20630;-96
2021/03/19 12:45:01;;;;;;;10.47;9.57;;;5.00;99.90;;;;;;5054020;28;20702;-96
2021/03/19 12:47:31;;;;;;;10.47;9.67;;;5.20;99.90;;;;;;5050339;28;20651;-96
2021/03/19 12:49:59;;;;;;;11.40;10.40;;;5.00;99.90;;;;;;5034209;28;20670;-96
2021/03/19 12:53:08;;;;;;;11.27;10.27;;;4.70;99.90;;;;;;5049165;28;20758;-95
2021/03/19 12:55:36;;;;;;;10.33;9.43;;;5.00;99.90;;;;;;5040678;28;20671;-96
2021/03/19 12:58:03;;;;;;;10.63;9.73;;;6.20;99.90;;;;;;5054016;28;20722;-94
2021/03/19 13:00:50;;;;;;;10.77;9.87;;;6.20;99.90;;;;;;5053941;28;20658;-96
2021/03/19 13:15:33;;;;;;;13.03;11.97;;;5.30;99.90;;;;;;5059022;28;20551;-95
2021/03/19 13:18:23;;;;;;;13.67;12.57;;;5.30;99.90;;;;;;5058223;28;20638;-95
2021/03/19 13:20:52;;;;;;;15.20;13.80;;;5.30;99.90;;;;;;5053115;28;21270;-95
2021/03/19 13:49:55;;;;;;;14.37;13.07;;;5.20;99.90;;;;;;4998723;28;20636;-96
2021/03/19 13:52:22;;;;;;;13.00;11.90;;;5.70;99.90;;;;;;5024387;28;20639;-96
2021/03/19 13:58:19;;;;;;;14.63;13.27;;;5.90;99.90;;;;;;5031987;28;20547;-96
2021/03/19 14:00:47;;;;;;;14.70;13.33;;;5.70;99.90;;;;;;5033058;28;20638;-96
2021/03/19 14:03:20;;;;;;;13.90;12.60;;;5.60;99.90;;;;;;5031376;28;20891;-96
2021/03/19 14:09:10;;;;;;;16.37;14.90;;;5.50;99.90;;;;;;5034227;28;20587;-95
2021/03/19 14:11:43;;;;;;;15.03;13.73;;;5.50;99.90;;;;;;5031929;28;20624;-96
2021/03/19 14:20:17;;;;;;;14.87;13.67;;;5.50;99.90;;;;;;5080808;28;20644;-94
2021/03/19 14:23:10;;;;;;;15.37;13.97;;;5.60;99.90;;;;;;5062490;28;20630;-96
2021/03/19 14:25:41;;;;;;;15.70;14.20;;;5.50;99.90;;;;;;5078191;28;20673;-96
2021/03/19 14:28:22;;;;;;;15.50;14.00;;;5.70;99.90;;;;;;5061071;28;20636;-95
2021/03/19 14:31:17;;;;;;;16.37;14.90;;;6.00;99.90;;;;;;5089822;28;20638;-96
2021/03/19 14:34:05;;;;;;;14.93;13.53;;;5.50;99.90;;;;;;5060496;28;20733;-96
2021/03/19 14:36:34;;;;;;;15.17;13.87;;;5.70;99.90;;;;;;5050377;28;20656;-96
2021/03/19 14:48:08;;;;;;;13.90;12.70;;;6.10;99.90;;;;;;5042492;28;20661;-96
2021/03/19 14:56:55;;;;;;;12.13;11.03;;;5.50;99.90;;;;;;5022275;28;20646;-96
2021/03/19 14:59:26;;;;;;;11.57;10.60;;;5.10;99.90;;;;;;5039955;28;21060;-96
2021/03/19 15:04:58;;;;;;;10.00;9.10;;;4.20;99.90;;;;;;6050721;22;20673;-95
2021/03/19 15:10:25;;;;;;;8.37;7.67;;;4.00;99.90;;;;;;5119123;22;20734;-96
2021/03/19 15:30:42;;;;;;;8.63;7.83;;;4.30;99.90;;;;;;5078428;28;20561;-96
2021/03/19 16:10:40;;;;;;;7.90;7.30;;;5.40;99.90;;;;;;5074816;28;20606;-95
2021/03/19 16:19:09;;;;;;;9.30;8.50;;;7.00;99.50;;;;;;5093728;23;20669;-95
2021/03/19 16:21:39;;;;;;;6.07;5.57;;;8.10;98.40;;;;;;5049456;28;20702;-96
2021/03/19 16:24:42;;;;;;;5.80;5.40;;;7.60;98.10;;;;;;5053504;28;20603;-96
2021/03/19 16:27:19;;;;;;;6.30;5.70;;;7.30;98.20;;;;;;5048678;28;20671;-96
2021/03/19 16:35:50;;;;;;;6.83;6.23;;;6.20;99.90;;;;;;5039527;28;20623;-94
2021/03/19 16:38:19;;;;;;;7.10;6.47;;;7.30;99.10;;;;;;5038883;28;20680;-94
2021/03/19 16:40:48;;;;;;;6.47;5.90;;;6.70;99.60;;;;;;5038046;28;20655;-95
2021/03/19 16:43:18;;;;;;;7.43;6.23;;;6.30;99.90;;;;;;5047447;28;20638;-96
2021/03/19 16:46:07;;;;;;;6.87;6.17;;;5.90;99.90;;;;;;5047972;28;20631;-96
2021/03/19 16:49:04;;;;;;;7.57;6.97;;;5.70;99.90;;;;;;5046678;28;21124;-96
2021/03/19 16:52:13;;;;;;;7.80;7.00;;;5.40;99.90;;;;;;5048499;28;20650;-95
2021/03/19 16:54:47;;;;;;;6.53;6.03;;;5.30;99.90;;;;;;5049339;28;20638;-95
2021/03/19 16:57:16;;;;;;;6.57;6.07;;;5.20;99.90;;;;;;5053216;28;20656;-95
2021/03/19 17:00:05;;;;;;;6.27;5.77;;;5.10;99.90;;;;;;5068362;28;20677;-96
2021/03/19 17:02:43;;;;;;;5.80;5.30;;;5.00;99.90;;;;;;5061615;28;20646;-95
2021/03/19 17:05:56;;;;;;;10.03;5.33;;;5.00;99.90;;;;;;5050472;28;20631;-94
2021/03/19 17:08:30;;;;;;;6.43;5.83;;;4.80;99.90;;;;;;5047014;28;20685;-95
2021/03/19 17:11:02;;;;;;;6.33;5.83;;;4.70;99.90;;;;;;5042841;28;20625;-96
2021/03/19 17:13:45;;;;;;;5.77;5.23;;;4.70;99.90;;;;;;5046983;28;20647;-95
2021/03/19 17:16:39;;;;;;;6.57;5.47;;;4.50;99.90;;;;;;5041466;28;20644;-95
2021/03/19 17:19:44;;;;;;;5.83;5.33;;;4.50;99.90;;;;;;5042516;28;20653;-96
2021/03/19 17:22:10;;;;;;;6.40;5.80;;;4.40;99.90;;;;;;5046105;28;20704;-96
2021/03/19 17:24:37;;;;;;;5.73;5.20;;;4.40;99.90;;;;;;5048375;28;20649;-95
2021/03/19 17:29:49;;;;;;;6.33;5.57;;;4.30;99.90;;;;;;5062760;28;20618;-96
2021/03/19 17:32:16;;;;;;;5.70;5.20;;;4.30;99.90;;;;;;5050558;28;20627;-95
2021/03/19 17:37:30;;;;;;;5.87;5.37;;;4.20;99.90;;;;;;5050224;28;20670;-95
2021/03/19 17:39:57;;;;;;;7.13;6.43;;;4.10;99.80;;;;;;5051414;28;20666;-94